Time;durP1;ratioP1;P1;durP2;ratioP2;P2;SDS_P1;SDS_P2;PMS_P1;PMS_P2;Temp;Humidity;BMP_temperature;BMP_pressure;BME280_temperature;BME280_humidity;BME280_pressure;Samples;Min_cycle;Max_cycle;Signal;HPM_P1;HPM_P2
2020/12/13 00:00:32;;;;;;;91.88;59.83;;;;;;;15.37;38.70;93240.13;5080029;28;20051;-58
2020/12/13 00:03:00;;;;;;;80.15;51.88;;;;;;;15.33;38.88;93249.81;5079989;28;20055;-48
2020/12/13 00:05:27;;;;;;;77.80;51.47;;;;;;;15.49;38.66;93241.13;5086614;28;20048;-59
2020/12/13 00:07:54;;;;;;;75.80;51.20;;;;;;;15.24;39.17;93241.34;5077562;28;20048;-45
2020/12/13 00:10:22;;;;;;;76.65;50.58;;;;;;;15.46;38.94;93236.53;5077590;28;20055;-62
2020/12/13 00:12:50;;;;;;;76.43;50.13;;;;;;;15.43;38.64;93246.66;5080712;28;20052;-58
2020/12/13 00:15:17;;;;;;;76.68;50.92;;;;;;;14.67;40.23;93249.75;5090813;28;20040;-54
2020/12/13 00:17:47;;;;;;;76.20;50.22;;;;;;;16.20;37.15;93255.81;5079457;28;20048;-55
2020/12/13 00:20:14;;;;;;;73.20;48.83;;;;;;;16.56;36.37;93244.78;5097004;28;20055;-43
2020/12/13 00:22:42;;;;;;;79.65;52.75;;;;;;;16.73;36.27;93248.88;5061709;28;20344;-42
2020/12/13 00:25:09;;;;;;;79.25;52.97;;;;;;;16.88;35.72;93249.88;5084719;28;20056;-60
2020/12/13 00:27:36;;;;;;;75.10;50.40;;;;;;;17.19;34.80;93254.94;5096052;28;20055;-52
2020/12/13 00:30:04;;;;;;;80.28;54.08;;;;;;;17.31;34.45;93251.34;5097232;28;20052;-55
2020/12/13 00:32:32;;;;;;;79.28;53.40;;;;;;;17.29;34.41;93258.09;5089629;28;20048;-59
2020/12/13 00:34:59;;;;;;;76.03;51.47;;;;;;;17.17;34.87;93262.44;5076777;28;20079;-63
2020/12/13 00:37:27;;;;;;;77.72;51.20;;;;;;;17.37;34.61;93259.72;5082527;28;20048;-67
2020/12/13 00:39:54;;;;;;;73.07;50.47;;;;;;;15.89;37.10;93254.06;5097260;28;20044;-63
2020/12/13 00:42:21;;;;;;;71.90;49.67;;;;;;;15.79;37.59;93260.63;5095128;28;20054;-62
2020/12/13 00:44:49;;;;;;;73.15;49.90;;;;;;;15.33;38.65;93244.53;5076632;28;20055;-46
2020/12/13 00:47:16;;;;;;;73.20;49.90;;;;;;;16.52;36.22;93254.53;5075937;28;20044;-64
2020/12/13 00:49:43;;;;;;;70.03;46.53;;;;;;;16.99;34.95;93261.41;5067507;28;20060;-65
2020/12/13 00:52:10;;;;;;;69.53;47.65;;;;;;;16.97;34.88;93271.53;5058737;28;20048;-66
2020/12/13 00:54:38;;;;;;;63.13;45.53;;;;;;;17.07;35.13;93263.03;5076213;28;20048;-66
2020/12/13 00:57:05;;;;;;;64.85;46.35;;;;;;;16.92;35.18;93261.28;5075760;28;20059;-65
2020/12/13 00:59:32;;;;;;;61.15;44.30;;;;;;;17.12;35.01;93249.53;5059031;28;20059;-65
2020/12/13 01:01:59;;;;;;;62.42;42.95;;;;;;;17.02;35.15;93255.41;5076455;28;20048;-61
2020/12/13 01:04:26;;;;;;;63.55;44.63;;;;;;;17.13;34.42;93243.13;5075949;28;20044;-65
2020/12/13 01:06:53;;;;;;;59.03;42.20;;;;;;;16.98;35.13;93259.88;5076557;28;20471;-65
2020/12/13 01:09:21;;;;;;;57.97;42.45;;;;;;;17.13;34.79;93248.41;5058794;28;20468;-49
2020/12/13 01:11:48;;;;;;;57.85;41.78;;;;;;;17.20;34.52;93251.19;5076317;28;20052;-65
2020/12/13 01:14:15;;;;;;;56.83;40.72;;;;;;;17.11;34.76;93242.72;5058199;28;20052;-66
2020/12/13 01:16:42;;;;;;;64.65;45.92;;;;;;;17.12;34.89;93254.81;5075907;28;20051;-67
2020/12/13 01:19:09;;;;;;;75.65;49.30;;;;;;;17.04;34.84;93263.72;5076309;28;20459;-68
2020/12/13 01:21:36;;;;;;;61.15;44.53;;;;;;;16.99;34.79;93264.03;5076163;28;20044;-45
2020/12/13 01:24:03;;;;;;;61.47;42.85;;;;;;;17.13;34.64;93261.59;5075848;28;20324;-65
2020/12/13 01:26:30;;;;;;;59.50;41.97;;;;;;;17.19;34.40;93265.50;5075819;28;20358;-64
2020/12/13 01:28:57;;;;;;;57.63;42.22;;;;;;;17.08;34.39;93254.00;5076024;28;20052;-45
2020/12/13 01:31:25;;;;;;;55.13;40.08;;;;;;;16.98;34.57;93261.75;5076045;28;20049;-64
2020/12/13 01:33:53;;;;;;;53.60;39.50;;;;;;;16.95;34.75;93258.69;5075481;28;20056;-45
2020/12/13 01:36:22;;;;;;;51.13;38.90;;;;;;;17.08;34.51;93259.28;5075928;28;20048;-63
2020/12/13 01:38:50;;;;;;;56.67;39.75;;;;;;;16.98;34.69;93259.88;5075981;28;20048;-59
2020/12/13 01:41:18;;;;;;;56.88;39.97;;;;;;;16.85;34.79;93253.22;5075850;28;20487;-44
2020/12/13 01:44:03;;;;;;;59.15;40.78;;;;;;;16.97;34.56;93253.06;5086622;28;20387;-45
2020/12/13 01:46:31;;;;;;;57.08;41.42;;;;;;;16.91;34.75;93254.44;5095757;28;20056;-63
2020/12/13 01:49:04;;;;;;;55.42;40.58;;;;;;;16.97;34.82;93253.06;5096009;28;20055;-45
2020/12/13 01:52:06;;;;;;;57.05;40.65;;;;;;;16.89;34.47;93251.41;5096011;28;20366;-65
2020/12/13 01:54:33;;;;;;;57.05;40.88;;;;;;;16.93;34.61;93252.25;5095273;28;20364;-64
2020/12/13 01:57:02;;;;;;;55.33;39.60;;;;;;;16.94;34.56;93253.78;5095910;28;20048;-63
2020/12/13 01:59:32;;;;;;;51.75;39.20;;;;;;;17.07;34.18;93252.47;5095761;28;20048;-45
2020/12/13 02:02:03;;;;;;;53.35;38.45;;;;;;;16.83;34.22;93244.91;5078322;28;20082;-62
2020/12/13 02:04:33;;;;;;;55.03;38.95;;;;;;;16.67;34.57;93252.94;5095401;28;20048;-66
2020/12/13 02:07:01;;;;;;;54.45;37.13;;;;;;;16.58;34.31;93255.75;5057640;28;20048;-64
2020/12/13 02:09:29;;;;;;;52.63;38.28;;;;;;;16.68;34.77;93257.09;5075246;28;20485;-45
2020/12/13 02:11:56;;;;;;;61.38;41.53;;;;;;;16.69;34.46;93257.88;5075285;28;20049;-44
2020/12/13 02:14:24;;;;;;;60.08;44.08;;;;;;;16.67;34.54;93246.91;5073576;28;20126;-65
2020/12/13 02:16:51;;;;;;;65.13;46.92;;;;;;;16.55;34.51;93253.81;5095262;28;20048;-65
2020/12/13 02:19:18;;;;;;;72.63;50.80;;;;;;;16.43;34.97;93248.72;5077833;28;20044;-66
2020/12/13 02:21:47;;;;;;;64.18;46.85;;;;;;;16.44;34.82;93247.59;5095553;28;20448;-66
2020/12/13 02:24:15;;;;;;;68.97;46.75;;;;;;;16.51;34.90;93257.50;5095403;28;20048;-64
2020/12/13 02:26:44;;;;;;;70.63;49.33;;;;;;;16.15;35.48;93256.09;5095197;28;20076;-65
2020/12/13 02:29:12;;;;;;;64.88;45.22;;;;;;;16.06;35.57;93258.16;5091551;28;20063;-64
2020/12/13 02:31:39;;;;;;;72.97;48.35;;;;;;;16.06;35.40;93248.38;5075208;28;20382;-59
2020/12/13 02:34:07;;;;;;;67.47;46.05;;;;;;;16.14;35.00;93262.47;5074673;28;20053;-66
2020/12/13 02:36:35;;;;;;;71.95;47.83;;;;;;;16.41;34.89;93268.63;5075026;28;20059;-49
2020/12/13 02:39:05;;;;;;;64.90;46.75;;;;;;;16.44;34.51;93263.44;5075272;28;20394;-45
2020/12/13 02:41:32;;;;;;;65.35;45.50;;;;;;;16.41;34.58;93268.63;5057892;28;20044;-45
2020/12/13 02:43:59;;;;;;;64.25;45.38;;;;;;;16.49;34.54;93260.50;5086974;28;20054;-66
2020/12/13 02:46:26;;;;;;;63.17;44.95;;;;;;;16.46;34.62;93277.03;5095015;28;20044;-67
2020/12/13 02:48:53;;;;;;;55.03;40.90;;;;;;;16.61;34.23;93273.53;5088507;28;20052;-67
2020/12/13 02:51:21;;;;;;;63.47;45.30;;;;;;;16.23;34.69;93273.56;5075086;28;20049;-66
2020/12/13 02:53:48;;;;;;;64.47;45.08;;;;;;;15.93;35.52;93271.47;5074707;28;20040;-65
2020/12/13 02:56:15;;;;;;;63.17;43.50;;;;;;;15.96;35.28;93280.56;5074785;28;20079;-67
2020/12/13 02:58:42;;;;;;;62.90;43.92;;;;;;;16.08;35.19;93277.00;5074965;28;20371;-66
2020/12/13 03:01:10;;;;;;;59.95;42.58;;;;;;;16.27;34.93;93264.59;5074906;28;20459;-66
2020/12/13 03:03:37;;;;;;;64.07;44.90;;;;;;;16.29;35.06;93278.19;5074654;28;20052;-66
2020/12/13 03:06:04;;;;;;;69.28;48.75;;;;;;;16.43;34.48;93272.44;5074430;28;20044;-66
2020/12/13 03:08:31;;;;;;;66.18;46.03;;;;;;;16.39;34.93;93276.09;5074879;28;20051;-66
2020/12/13 03:10:58;;;;;;;64.45;44.88;;;;;;;16.37;34.38;93275.69;5074872;28;20443;-67
2020/12/13 03:13:25;;;;;;;62.22;42.08;;;;;;;16.31;34.30;93285.75;5074333;28;20059;-65
2020/12/13 03:15:52;;;;;;;63.15;42.58;;;;;;;16.50;33.93;93272.56;5074400;28;20059;-65
2020/12/13 03:18:19;;;;;;;59.97;41.20;;;;;;;16.46;34.03;93292.84;5074694;28;20044;-63
2020/12/13 03:20:46;;;;;;;60.55;43.15;;;;;;;16.26;34.50;93293.97;5076878;28;20070;-66
2020/12/13 03:23:13;;;;;;;58.83;41.92;;;;;;;16.35;34.02;93295.28;5078333;28;20459;-66
2020/12/13 03:25:43;;;;;;;61.08;42.20;;;;;;;16.32;34.27;93295.19;5078167;28;20051;-66
2020/12/13 03:28:10;;;;;;;63.65;43.95;;;;;;;16.30;34.68;93289.50;5078313;28;20044;-60
2020/12/13 03:30:37;;;;;;;64.90;44.53;;;;;;;16.48;34.40;93288.00;5078425;28;20048;-60
2020/12/13 03:33:04;;;;;;;72.05;48.88;;;;;;;16.34;34.96;93295.63;5077940;28;20055;-66
2020/12/13 03:35:31;;;;;;;67.90;48.33;;;;;;;16.50;34.25;93293.69;5077995;28;20063;-45
2020/12/13 03:37:58;;;;;;;65.22;44.55;;;;;;;16.09;34.22;93295.13;5078166;28;20048;-67
2020/12/13 03:40:25;;;;;;;69.55;46.85;;;;;;;16.24;33.88;93296.19;5078243;28;20461;-65
2020/12/13 03:42:52;;;;;;;68.45;46.53;;;;;;;16.00;34.64;93303.22;5081588;28;20052;-66
2020/12/13 03:45:19;;;;;;;71.00;46.38;;;;;;;16.10;34.26;93295.88;5098055;28;20343;-66
2020/12/13 03:47:46;;;;;;;66.32;45.42;;;;;;;16.21;34.56;93296.88;5098283;28;20052;-65
2020/12/13 03:50:13;;;;;;;64.72;45.60;;;;;;;16.03;34.62;93297.28;5097849;28;20051;-55
2020/12/13 03:52:40;;;;;;;62.25;42.67;;;;;;;16.28;34.47;93295.13;5097984;28;20054;-65
2020/12/13 03:55:07;;;;;;;61.42;42.85;;;;;;;16.13;35.06;93305.72;5079372;28;20059;-64
2020/12/13 03:57:35;;;;;;;59.65;41.97;;;;;;;16.29;34.61;93293.25;5097803;28;20047;-45
2020/12/13 04:00:03;;;;;;;56.42;40.70;;;;;;;16.08;35.17;93301.50;5098015;28;20048;-65
2020/12/13 04:02:34;;;;;;;60.33;41.70;;;;;;;16.15;34.92;93293.75;5097798;28;20044;-44
2020/12/13 04:05:02;;;;;;;58.65;40.42;;;;;;;16.15;34.80;93303.53;5097994;28;20044;-56
2020/12/13 04:07:29;;;;;;;53.97;38.22;;;;;;;16.15;35.04;93298.28;5097744;28;20505;-45
2020/12/13 04:09:56;;;;;;;52.05;37.30;;;;;;;16.31;34.62;93302.34;5097755;28;20382;-63
2020/12/13 04:12:23;;;;;;;53.03;37.60;;;;;;;16.42;34.77;93301.81;5097709;28;20409;-50
2020/12/13 04:14:50;;;;;;;54.90;38.22;;;;;;;16.38;34.70;93304.34;5097320;28;20331;-55
2020/12/13 04:17:17;;;;;;;49.53;36.50;;;;;;;16.34;34.85;93295.63;5097586;28;20044;-45
2020/12/13 04:19:44;;;;;;;49.78;35.20;;;;;;;16.28;35.28;93303.06;5097398;28;20052;-66
2020/12/13 04:22:11;;;;;;;51.20;35.08;;;;;;;16.34;35.28;93306.94;5097466;28;20047;-66
2020/12/13 04:24:38;;;;;;;49.50;35.42;;;;;;;16.20;35.43;93311.16;5097638;28;20044;-66
2020/12/13 04:27:05;;;;;;;50.05;34.15;;;;;;;16.17;35.62;93311.88;5097437;28;20050;-66
2020/12/13 04:29:32;;;;;;;50.78;35.20;;;;;;;15.77;36.37;93307.63;5085458;28;20056;-66
2020/12/13 04:31:59;;;;;;;51.63;34.00;;;;;;;15.71;36.71;93314.28;5077084;28;20048;-66
2020/12/13 04:34:26;;;;;;;46.42;30.92;;;;;;;15.91;36.34;93318.50;5076983;28;20052;-66
2020/12/13 04:36:53;;;;;;;46.65;31.70;;;;;;;16.38;35.33;93317.53;5076859;28;20044;-66
2020/12/13 04:39:21;;;;;;;50.10;33.42;;;;;;;16.38;35.48;93317.53;5077065;28;20371;-66
2020/12/13 04:41:48;;;;;;;48.40;32.88;;;;;;;16.33;35.53;93323.09;5076975;28;20075;-65
2020/12/13 04:44:15;;;;;;;46.53;31.77;;;;;;;16.45;35.30;93328.25;5091878;28;20048;-67
2020/12/13 04:46:45;;;;;;;47.15;32.42;;;;;;;15.94;36.01;93330.97;5096883;28;20044;-61
2020/12/13 04:49:16;;;;;;;49.03;32.28;;;;;;;16.57;34.74;93338.66;5097152;28;20052;-67
2020/12/13 04:51:44;;;;;;;48.88;31.85;;;;;;;16.33;35.36;93336.28;5079265;28;20043;-66
2020/12/13 04:54:20;;;;;;;51.50;34.03;;;;;;;16.13;35.94;93332.09;5079118;28;20055;-67
2020/12/13 04:56:50;;;;;;;44.63;32.25;;;;;;;16.35;35.50;93326.16;5096814;28;20055;-66
2020/12/13 04:59:18;;;;;;;50.90;32.78;;;;;;;16.45;35.51;93328.25;5097001;28;20067;-66
2020/12/13 05:01:46;;;;;;;52.20;33.40;;;;;;;16.33;35.62;93331.00;5094720;28;20374;-45
2020/12/13 05:04:14;;;;;;;53.97;34.60;;;;;;;16.47;35.43;93330.53;5076324;28;20048;-67
2020/12/13 05:06:45;;;;;;;50.08;33.45;;;;;;;16.31;35.54;93339.28;5076231;28;20057;-46
2020/12/13 05:09:13;;;;;;;49.03;33.33;;;;;;;16.34;35.62;93327.25;5075436;28;20048;-66
2020/12/13 05:11:45;;;;;;;47.88;32.72;;;;;;;16.48;35.27;93338.09;5076440;28;20052;-66
2020/12/13 05:14:12;;;;;;;49.25;32.35;;;;;;;16.62;35.03;93333.09;5090792;28;20047;-66
2020/12/13 05:16:39;;;;;;;55.60;35.15;;;;;;;16.44;35.31;93333.88;5096579;28;20056;-66
2020/12/13 05:19:07;;;;;;;51.85;33.47;;;;;;;16.64;35.26;93325.59;5096220;28;20056;-66
2020/12/13 05:21:36;;;;;;;51.28;34.05;;;;;;;16.50;35.26;93325.34;5096470;28;20040;-66
2020/12/13 05:24:05;;;;;;;51.38;33.63;;;;;;;16.68;34.94;93324.94;5096221;28;20048;-66
2020/12/13 05:26:33;;;;;;;53.60;34.22;;;;;;;16.65;34.99;93342.97;5096447;28;20083;-66
2020/12/13 05:29:03;;;;;;;51.63;34.15;;;;;;;16.48;35.11;93332.84;5096122;28;20062;-67
2020/12/13 05:31:32;;;;;;;49.35;33.28;;;;;;;16.46;35.12;93329.78;5096335;28;20052;-66
2020/12/13 05:34:05;;;;;;;51.95;33.60;;;;;;;16.38;35.24;93322.81;5095894;28;20051;-66
2020/12/13 05:36:35;;;;;;;;;;;;;;;16.12;35.64;93331.34;5096954;28;20059;-66
2020/12/13 05:39:04;;;;;;;54.25;34.92;;;;;;;15.91;36.08;93342.22;5096213;28;19919;-66
2020/12/13 05:41:34;;;;;;;52.92;34.55;;;;;;;16.01;35.87;93336.41;5096446;28;20362;-66
2020/12/13 05:44:08;;;;;;;52.25;34.17;;;;;;;16.18;35.44;93345.03;5081516;28;20055;-66
2020/12/13 05:51:49;;;;;;;47.75;31.30;;;;;;;16.56;34.80;93349.56;5075666;28;20051;-66
2020/12/13 05:54:24;;;;;;;39.70;27.20;;;;;;;16.58;34.29;93353.38;5075520;28;20486;-65
2020/12/13 05:56:55;;;;;;;40.55;26.23;;;;;;;16.85;33.67;93356.16;5075645;28;20052;-49
2020/12/13 05:59:24;;;;;;;40.38;27.80;;;;;;;16.90;34.09;93358.50;5075301;28;20048;-64
2020/12/13 06:01:53;;;;;;;41.88;29.45;;;;;;;17.09;33.38;93355.84;5075516;28;20044;-63
2020/12/13 06:04:31;;;;;;;44.42;29.52;;;;;;;16.72;34.30;93365.34;5075556;28;20399;-66
2020/12/13 06:07:02;;;;;;;45.47;30.35;;;;;;;16.75;34.29;93359.38;5075468;28;20048;-67
2020/12/13 06:09:37;;;;;;;42.60;29.55;;;;;;;17.62;32.26;93366.53;5075222;28;20443;-66
2020/12/13 06:12:07;;;;;;;36.72;26.60;;;;;;;17.98;32.03;93372.41;5075201;28;20040;-67
2020/12/13 06:14:36;;;;;;;38.95;28.25;;;;;;;17.46;32.62;93369.31;5093020;28;20044;-66
2020/12/13 06:17:04;;;;;;;44.63;30.77;;;;;;;16.86;33.75;93369.00;5095537;28;20422;-66
2020/12/13 06:19:33;;;;;;;43.13;28.88;;;;;;;16.77;33.86;93378.25;5095275;28;20048;-65
2020/12/13 06:22:03;;;;;;;44.10;28.98;;;;;;;16.46;34.53;93387.06;5077591;28;20063;-66
2020/12/13 06:24:30;;;;;;;42.05;29.58;;;;;;;16.72;34.17;93389.88;5095559;28;20044;-66
2020/12/13 06:26:58;;;;;;;41.80;28.42;;;;;;;16.69;34.26;93390.56;5095521;28;20040;-66
2020/12/13 06:29:26;;;;;;;41.47;27.88;;;;;;;16.62;34.56;93391.13;5077378;28;20055;-66
2020/12/13 06:31:54;;;;;;;38.55;27.30;;;;;;;16.55;34.74;93393.66;5077546;28;20051;-66
2020/12/13 06:34:23;;;;;;;38.60;27.45;;;;;;;16.93;34.11;93397.44;5095390;28;20465;-67
2020/12/13 06:36:52;;;;;;;39.10;27.60;;;;;;;16.60;34.82;93390.72;5095537;28;20063;-66
2020/12/13 06:39:19;;;;;;;36.60;26.38;;;;;;;16.64;34.72;93388.91;5077424;28;20056;-67
2020/12/13 06:41:49;;;;;;;36.83;26.25;;;;;;;16.67;34.58;93394.66;5089577;28;20040;-66
2020/12/13 06:44:17;;;;;;;37.58;25.40;;;;;;;16.89;34.55;93391.31;5074789;28;20467;-66
2020/12/13 06:46:45;;;;;;;36.13;26.08;;;;;;;16.79;34.34;93394.50;5075044;28;20047;-65
2020/12/13 06:49:15;;;;;;;37.40;26.65;;;;;;;17.01;34.24;93390.41;5074777;28;20048;-67
2020/12/13 06:51:43;;;;;;;38.55;25.90;;;;;;;17.15;34.01;93398.56;5075063;28;20055;-67
2020/12/13 06:54:16;;;;;;;34.70;24.95;;;;;;;17.06;33.89;93405.97;5074849;28;20052;-66
2020/12/13 06:56:45;;;;;;;33.80;24.92;;;;;;;17.05;34.22;93413.13;5078636;28;20048;-67
2020/12/13 06:59:12;;;;;;;34.45;26.05;;;;;;;17.20;34.19;93404.34;5078720;28;20339;-66
2020/12/13 07:01:42;;;;;;;36.50;26.27;;;;;;;17.14;33.78;93405.72;5079025;28;20056;-67
2020/12/13 07:04:22;;;;;;;32.95;25.17;;;;;;;16.98;34.52;93412.22;5078626;28;20052;-66
2020/12/13 07:07:07;;;;;;;39.70;27.63;;;;;;;17.05;33.95;93417.63;5078919;28;20048;-66
2020/12/13 07:09:34;;;;;;;35.55;25.77;;;;;;;17.14;33.87;93420.81;5078451;28;20056;-66
2020/12/13 07:12:03;;;;;;;36.95;26.52;;;;;;;16.97;34.26;93415.97;5078512;28;20048;-66
2020/12/13 07:14:32;;;;;;;33.80;25.42;;;;;;;17.22;33.78;93423.25;5095854;28;20051;-65
2020/12/13 07:17:03;;;;;;;34.30;24.92;;;;;;;17.13;34.35;93421.94;5098883;28;20048;-66
2020/12/13 07:19:33;;;;;;;34.20;25.23;;;;;;;17.04;34.13;93416.88;5081195;28;20048;-61
2020/12/13 07:22:02;;;;;;;32.47;24.10;;;;;;;16.99;34.50;93433.00;5098586;28;20118;-66
2020/12/13 07:24:30;;;;;;;33.83;24.42;;;;;;;17.01;34.11;93432.66;5098883;28;20047;-66
2020/12/13 07:26:58;;;;;;;30.23;23.40;;;;;;;17.24;33.87;93436.09;5090635;28;20044;-66
2020/12/13 07:29:26;;;;;;;28.60;20.77;;;;;;;17.45;33.35;93436.50;5078428;28;20055;-66
2020/12/13 07:31:53;;;;;;;30.02;21.67;;;;;;;17.17;34.17;93436.72;5059677;28;20044;-66
2020/12/13 07:34:21;;;;;;;27.15;21.38;;;;;;;17.36;33.71;93438.59;5096566;28;20063;-66
2020/12/13 07:36:48;;;;;;;26.33;20.25;;;;;;;17.34;33.16;93445.34;5098700;28;20055;-67
2020/12/13 07:39:15;;;;;;;26.27;20.08;;;;;;;17.30;33.43;93439.22;5098538;28;20060;-66
2020/12/13 07:41:44;;;;;;;27.33;20.80;;;;;;;17.04;34.30;93445.16;5098434;28;20055;-66
2020/12/13 07:44:12;;;;;;;26.30;21.00;;;;;;;16.42;35.17;93455.56;5082885;28;20052;-66
2020/12/13 07:46:41;;;;;;;31.02;22.67;;;;;;;14.19;40.46;93467.00;5078068;28;20047;-66
2020/12/13 07:49:13;;;;;;;34.53;23.20;;;;;;;13.56;42.12;93472.56;5078158;28;20573;-65
2020/12/13 07:51:43;;;;;;;29.65;21.67;;;;;;;14.06;40.99;93473.38;5098258;28;20141;-65
2020/12/13 07:54:19;;;;;;;32.17;22.98;;;;;;;15.56;37.59;93467.81;5081267;28;20040;-67
2020/12/13 07:56:51;;;;;;;33.60;23.90;;;;;;;16.04;37.00;93483.31;5077468;28;20052;-66
2020/12/13 07:59:18;;;;;;;32.15;24.38;;;;;;;16.42;35.56;93476.66;5077858;28;20048;-66
2020/12/13 08:01:50;;;;;;;36.42;27.08;;;;;;;16.63;35.02;93477.09;5077551;28;20051;-66
2020/12/13 08:04:30;;;;;;;30.35;23.88;;;;;;;16.75;35.27;93483.41;5077525;28;20048;-66
2020/12/13 08:06:59;;;;;;;29.95;21.25;;;;;;;17.12;34.52;93481.91;5077562;28;20044;-65
2020/12/13 08:09:26;;;;;;;29.10;21.98;;;;;;;17.24;33.74;93479.13;5077704;28;20052;-65
2020/12/13 08:11:54;;;;;;;26.92;20.90;;;;;;;17.33;33.42;93486.06;5077547;28;20052;-66
2020/12/13 08:14:25;;;;;;;25.00;20.38;;;;;;;17.42;33.46;93494.53;5092693;28;20044;-61
2020/12/13 08:16:57;;;;;;;26.52;19.63;;;;;;;17.50;33.35;93485.63;5097869;28;20067;-65
2020/12/13 08:19:49;;;;;;;24.75;19.90;;;;;;;17.50;33.34;93490.94;5097498;28;20044;-65
2020/12/13 08:22:28;;;;;;;24.83;20.17;;;;;;;17.51;33.23;93493.22;5079809;28;20048;-61
2020/12/13 08:25:06;;;;;;;25.08;19.92;;;;;;;17.60;33.02;93495.63;5097639;28;20048;-63
2020/12/13 08:27:36;;;;;;;29.48;23.08;;;;;;;17.53;33.18;93490.22;5097570;28;20055;-65
2020/12/13 08:30:05;;;;;;;32.30;24.70;;;;;;;17.75;32.40;93489.53;5089951;28;20055;-66
2020/12/13 08:32:36;;;;;;;38.22;27.52;;;;;;;17.51;33.04;93489.81;5076872;28;20344;-66
2020/12/13 08:35:19;;;;;;;35.35;26.08;;;;;;;17.66;33.12;93488.16;5077353;28;20443;-67
2020/12/13 08:37:58;;;;;;;35.58;27.45;;;;;;;17.81;32.75;93471.47;5077600;28;20052;-52
2020/12/13 08:40:40;;;;;;;37.63;30.20;;;;;;;17.88;32.44;93485.56;5093671;28;20044;-68
2020/12/13 08:43:09;;;;;;;38.67;30.85;;;;;;;16.70;34.73;93481.81;5096402;28;20048;-63
2020/12/13 08:45:36;;;;;;;42.92;30.20;;;;;;;16.48;35.05;93490.34;5076881;28;20051;-66
2020/12/13 08:48:04;;;;;;;37.42;29.42;;;;;;;16.72;34.94;93495.44;5076812;28;20059;-66
2020/12/13 08:50:41;;;;;;;40.55;31.60;;;;;;;16.91;34.68;93492.03;5076899;28;20055;-66
2020/12/13 08:53:23;;;;;;;41.70;31.90;;;;;;;17.11;34.42;93496.22;5076458;28;20044;-66
2020/12/13 08:56:07;;;;;;;40.10;30.30;;;;;;;17.10;33.97;93505.25;5076688;28;20044;-65
2020/12/13 08:58:57;;;;;;;;;;;;;;;17.30;33.87;93497.34;5077192;28;20059;-66
2020/12/13 09:01:30;;;;;;;41.08;30.02;;;;;;;16.85;34.72;93503.97;5076671;28;19919;-66
2020/12/13 09:03:57;;;;;;;;;;;;;;;17.46;33.41;93500.66;5076420;28;20063;-50
2020/12/13 09:06:32;;;;;;;41.75;30.13;;;;;;;17.47;33.04;93502.97;5085581;28;20307;-66
2020/12/13 09:09:13;;;;;;;38.67;30.13;;;;;;;17.32;33.52;93510.97;5096725;28;20055;-52
2020/12/13 09:11:41;;;;;;;41.55;31.73;;;;;;;17.41;33.56;93512.25;5096633;28;20048;-53
2020/12/13 09:14:08;;;;;;;41.22;32.22;;;;;;;17.69;33.33;93514.69;5081634;28;20055;-51
2020/12/13 09:16:36;;;;;;;43.53;34.55;;;;;;;17.53;33.41;93514.78;5076443;28;20076;-57
2020/12/13 09:19:07;;;;;;;43.45;32.83;;;;;;;17.93;32.87;93510.94;5075616;28;20053;-55
2020/12/13 09:21:57;;;;;;;41.30;32.75;;;;;;;17.96;32.72;93496.28;5076084;28;20060;-52
2020/12/13 09:24:27;;;;;;;48.55;37.13;;;;;;;18.05;32.49;93497.56;5080231;28;20052;-49
2020/12/13 09:27:08;;;;;;;58.20;44.58;;;;;;;17.38;33.70;93497.09;5087150;28;20040;-58
2020/12/13 09:29:37;;;;;;;54.63;42.58;;;;;;;17.06;34.13;93507.06;5086810;28;20048;-58
2020/12/13 09:32:07;;;;;;;60.85;45.25;;;;;;;16.12;36.12;93494.03;5085641;28;20055;-54
2020/12/13 09:34:34;;;;;;;59.42;43.53;;;;;;;15.39;38.46;93505.78;5078650;28;20044;-60
2020/12/13 09:37:01;;;;;;;60.72;44.53;;;;;;;15.00;38.35;93494.16;5058660;28;20048;-58
2020/12/13 09:39:31;;;;;;;59.22;43.88;;;;;;;14.38;40.02;93500.63;5075945;28;20048;-65
2020/12/13 09:41:59;;;;;;;59.60;43.03;;;;;;;14.40;40.21;93498.44;5075730;28;20040;-56
2020/12/13 09:44:26;;;;;;;58.83;41.95;;;;;;;15.39;37.81;93501.25;5075219;28;20060;-48
2020/12/13 09:46:58;;;;;;;70.75;47.45;;;;;;;14.90;39.61;93494.66;5075729;28;20363;-50
2020/12/13 09:49:26;;;;;;;52.30;35.95;;;;;;;14.65;40.17;93497.34;5075751;28;20055;-52
2020/12/13 09:52:01;;;;;;;46.40;35.22;;;;;;;14.92;40.30;93513.50;5075563;28;20052;-59
2020/12/13 09:54:29;;;;;;;50.08;37.78;;;;;;;16.52;36.23;93502.50;5075443;28;20059;-44
2020/12/13 09:56:57;;;;;;;50.63;37.75;;;;;;;16.52;36.22;93502.50;5092125;28;20052;-53
2020/12/13 09:59:26;;;;;;;54.70;40.47;;;;;;;16.73;35.24;93489.03;5095634;28;20362;-45
2020/12/13 10:01:53;;;;;;;48.42;37.63;;;;;;;17.22;34.58;93494.56;5058807;28;20059;-45
2020/12/13 10:04:21;;;;;;;50.15;37.90;;;;;;;17.50;33.95;93491.69;5075446;28;20048;-50
2020/12/13 10:09:35;;;;;;;44.65;35.55;;;;;;;17.70;33.09;93489.81;5075442;28;20045;-49
2020/12/13 10:12:03;;;;;;;44.22;34.85;;;;;;;17.73;33.61;93489.09;5075249;28;20378;-53
2020/12/13 10:14:30;;;;;;;44.90;36.60;;;;;;;17.91;33.15;93488.63;5074643;28;20049;-49
2020/12/13 10:16:57;;;;;;;48.72;37.15;;;;;;;17.94;33.13;93482.63;5075421;28;20056;-53
2020/12/13 10:19:25;;;;;;;38.65;30.95;;;;;;;18.00;33.41;93481.25;5075322;28;20055;-58
2020/12/13 10:21:52;;;;;;;35.03;27.83;;;;;;;17.91;33.43;93478.03;5075126;28;20677;-54
2020/12/13 10:24:19;;;;;;;32.47;26.20;;;;;;;18.24;33.04;93482.75;5075015;28;20051;-54
2020/12/13 10:26:46;;;;;;;26.55;21.58;;;;;;;17.84;33.27;93479.47;5075262;28;20646;-55
2020/12/13 10:29:14;;;;;;;27.92;22.40;;;;;;;17.51;34.62;93484.53;5075051;28;20045;-53
2020/12/13 10:31:41;;;;;;;25.35;20.92;;;;;;;17.35;34.86;93478.56;5075076;28;20375;-52
2020/12/13 10:34:10;;;;;;;30.40;23.08;;;;;;;17.49;34.39;93481.47;5074918;28;20049;-55
2020/12/13 10:36:39;;;;;;;29.30;23.95;;;;;;;17.72;33.64;93477.00;5075164;28;20055;-50
2020/12/13 10:39:08;;;;;;;28.67;22.27;;;;;;;17.66;34.24;93477.59;5075142;28;20048;-51
2020/12/13 10:41:36;;;;;;;28.80;22.48;;;;;;;17.68;34.23;93476.16;5074997;28;20059;-54
2020/12/13 10:44:04;;;;;;;28.80;23.65;;;;;;;17.55;34.70;93472.13;5088213;28;20055;-50
2020/12/13 10:46:31;;;;;;;29.42;23.45;;;;;;;17.65;35.08;93482.13;5095208;28;20079;-52
2020/12/13 10:48:58;;;;;;;27.23;22.20;;;;;;;17.41;34.89;93471.88;5095260;28;20044;-55
2020/12/13 10:51:26;;;;;;;28.23;22.75;;;;;;;17.53;34.14;93463.81;5095163;28;20043;-53
2020/12/13 10:53:53;;;;;;;30.58;24.05;;;;;;;17.54;35.14;93467.97;5094779;28;20059;-53
2020/12/13 10:56:21;;;;;;;31.48;24.60;;;;;;;17.44;34.99;93471.19;5095165;28;20044;-53
2020/12/13 10:58:48;;;;;;;27.75;23.67;;;;;;;17.60;34.47;93473.72;5095168;28;20473;-54
2020/12/13 11:01:16;;;;;;;32.95;26.52;;;;;;;17.74;34.15;93469.50;5095202;28;20084;-53
2020/12/13 11:03:43;;;;;;;27.88;23.20;;;;;;;17.62;33.84;93466.19;5094688;28;20048;-53
2020/12/13 11:06:10;;;;;;;27.30;22.08;;;;;;;17.68;34.46;93470.88;5094985;28;20048;-53
2020/12/13 11:08:38;;;;;;;27.08;21.38;;;;;;;17.46;35.51;93474.25;5095030;28;20443;-51
2020/12/13 11:11:08;;;;;;;23.52;19.33;;;;;;;17.61;34.98;93469.97;5095050;28;20051;-51
2020/12/13 11:13:35;;;;;;;23.42;18.65;;;;;;;17.67;34.76;93469.34;5088909;28;20056;-51
2020/12/13 11:16:02;;;;;;;23.40;18.15;;;;;;;17.38;34.96;93483.13;5074620;28;20056;-52
2020/12/13 11:18:31;;;;;;;21.80;15.57;;;;;;;17.35;34.79;93478.56;5057155;28;20052;-52
2020/12/13 11:20:59;;;;;;;19.45;16.48;;;;;;;17.53;35.90;93472.50;5074837;28;20052;-54
2020/12/13 11:23:26;;;;;;;19.50;17.15;;;;;;;17.78;33.83;93462.38;5074383;28;20049;-52
2020/12/13 11:25:54;;;;;;;19.90;14.85;;;;;;;18.98;32.10;93475.84;5074659;28;20447;-51
2020/12/13 11:28:22;;;;;;;19.52;14.95;;;;;;;19.39;31.59;93470.66;5074827;28;20040;-51
2020/12/13 11:30:49;;;;;;;17.20;13.82;;;;;;;19.13;32.59;93476.03;5078311;28;20076;-44
2020/12/13 11:33:16;;;;;;;14.13;12.50;;;;;;;19.27;32.33;93470.91;5073145;28;20065;-53